createdAt,value
2022-11-16T00:01:19.181Z,15.70
2022-11-16T00:06:16.655Z,16.17
2022-11-16T00:11:17.494Z,15.35
2022-11-16T00:16:16.570Z,14.65
2022-11-16T00:21:13.567Z,14.23
2022-11-16T00:26:12.848Z,15.90
2022-11-16T00:31:11.236Z,15.18
2022-11-16T00:36:11.521Z,14.80
2022-11-16T00:41:09.456Z,13.98
2022-11-16T00:46:06.697Z,14.57
2022-11-16T00:51:05.171Z,16.20
2022-11-16T00:56:02.751Z,15.77
2022-11-16T01:01:06.360Z,15.63
2022-11-16T01:06:06.137Z,15.13
2022-11-16T01:11:17.835Z,14.63
2022-11-16T01:16:15.742Z,17.13
2022-11-16T01:21:13.657Z,15.57
2022-11-16T01:26:10.679Z,15.90
2022-11-16T01:31:10.096Z,17.15
2022-11-16T01:36:13.862Z,15.70
2022-11-16T01:41:14.878Z,15.85
2022-11-16T01:46:14.732Z,16.25
2022-11-16T01:51:11.865Z,16.45
2022-11-16T01:56:09.184Z,16.13
2022-11-16T02:01:15.949Z,15.02
2022-11-16T02:06:32.474Z,16.02
2022-11-16T02:11:57.088Z,14.77
2022-11-16T02:22:14.188Z,14.40
2022-11-16T02:27:26.643Z,16.58
2022-11-16T02:32:30.579Z,15.73
2022-11-16T02:37:33.279Z,14.90
2022-11-16T02:42:35.177Z,15.15
2022-11-16T02:47:36.163Z,14.98
2022-11-16T02:52:39.543Z,14.77
2022-11-16T02:57:44.559Z,14.43
2022-11-16T03:02:50.463Z,14.10
2022-11-16T03:07:53.156Z,14.37
2022-11-16T03:12:50.295Z,16.38
2022-11-16T03:17:51.702Z,14.73
2022-11-16T03:22:55.184Z,16.40
2022-11-16T03:28:02.495Z,14.38
2022-11-16T03:33:08.991Z,15.43
2022-11-16T03:38:09.759Z,16.17
2022-11-16T03:43:11.900Z,14.82
2022-11-16T03:48:11.882Z,15.55
2022-11-16T03:53:08.974Z,14.20
2022-11-16T03:58:08.336Z,14.23
2022-11-16T04:03:08.091Z,15.27
2022-11-16T04:08:24.298Z,14.85
2022-11-16T04:13:46.702Z,13.57
2022-11-16T04:19:01.847Z,15.73
2022-11-16T04:24:12.198Z,16.80
2022-11-16T04:29:09.567Z,15.60
2022-11-16T04:34:27.012Z,17.70
2022-11-16T04:39:28.397Z,16.42
2022-11-16T04:44:46.296Z,14.18
2022-11-16T04:49:43.366Z,14.52
2022-11-16T04:54:41.520Z,14.93
2022-11-16T04:59:39.714Z,14.98
2022-11-16T05:04:38.456Z,15.55
2022-11-16T05:09:40.946Z,15.38
2022-11-16T05:14:38.948Z,13.90
2022-11-16T05:19:54.462Z,12.80
2022-11-16T05:24:53.877Z,12.63
2022-11-16T05:29:52.260Z,13.75
2022-11-16T05:34:53.092Z,13.93
2022-11-16T05:39:50.866Z,13.13
2022-11-16T05:44:50.080Z,13.43
2022-11-16T05:49:48.926Z,11.82
2022-11-16T05:54:46.050Z,15.77
2022-11-16T05:59:43.399Z,13.68
2022-11-16T06:04:40.281Z,12.55
2022-11-16T06:09:39.247Z,16.90
2022-11-16T06:14:44.423Z,13.65
2022-11-16T06:19:41.740Z,13.43
2022-11-16T06:24:39.805Z,15.15
2022-11-16T06:29:37.097Z,15.18
2022-11-16T06:34:34.129Z,13.40
2022-11-16T06:39:32.370Z,14.18
2022-11-16T06:44:31.379Z,14.15
2022-11-16T06:49:32.087Z,15.55
2022-11-16T06:54:32.070Z,15.90
2022-11-16T06:59:29.954Z,16.65
2022-11-16T07:04:27.095Z,17.02
2022-11-16T07:09:28.266Z,13.70
2022-11-16T07:14:26.239Z,14.75
2022-11-16T07:19:24.458Z,15.95
2022-11-16T07:24:21.697Z,16.88
2022-11-16T07:29:20.918Z,18.75
2022-11-16T07:34:37.674Z,16.27
2022-11-16T07:44:40.148Z,15.15
2022-11-16T07:49:41.232Z,16.88
2022-11-16T07:54:45.547Z,18.75
2022-11-16T07:59:43.859Z,15.93
2022-11-16T08:04:43.013Z,19.10
2022-11-16T08:09:50.153Z,18.02
2022-11-16T08:14:47.342Z,18.55
2022-11-16T08:19:46.305Z,17.67
2022-11-16T08:24:46.257Z,19.75
2022-11-16T08:29:43.538Z,18.55
2022-11-16T08:34:40.748Z,19.83
2022-11-16T08:39:39.045Z,17.17
2022-11-16T08:44:39.196Z,18.70
2022-11-16T08:49:44.006Z,17.95
2022-11-16T08:54:46.607Z,17.60
2022-11-16T08:59:43.962Z,19.83
2022-11-16T09:04:46.844Z,18.85
2022-11-16T09:09:48.343Z,21.15
2022-11-16T09:14:45.503Z,19.55
2022-11-16T09:19:42.400Z,19.73
2022-11-16T09:24:39.480Z,18.63
2022-11-16T09:29:37.455Z,20.35
2022-11-16T09:34:34.771Z,18.88
2022-11-16T09:39:32.605Z,21.50
2022-11-16T09:44:48.752Z,19.60
2022-11-16T09:49:51.427Z,20.90
2022-11-16T09:54:50.520Z,18.08
2022-11-16T09:59:52.238Z,19.75
2022-11-16T10:04:58.674Z,21.90
2022-11-16T10:09:56.460Z,20.35
2022-11-16T10:15:32.507Z,19.67
2022-11-16T10:25:43.454Z,19.30
2022-11-16T10:30:48.710Z,20.30
2022-11-16T10:35:51.407Z,19.27
2022-11-16T10:40:52.535Z,20.23
2022-11-16T10:45:57.310Z,19.48
2022-11-16T10:50:54.579Z,20.45
2022-11-16T10:56:10.444Z,22.77
2022-11-16T11:01:11.077Z,20.40
2022-11-16T11:06:13.225Z,22.05
2022-11-16T11:11:38.987Z,21.38
2022-11-16T11:21:33.317Z,22.48
2022-11-16T11:26:36.874Z,23.13
2022-11-16T11:31:39.907Z,22.33
2022-11-16T11:36:41.413Z,22.40
2022-11-16T11:41:40.482Z,23.80
2022-11-16T11:47:28.586Z,24.10
2022-11-16T11:52:03.157Z,22.92
2022-11-16T11:57:03.194Z,22.50
2022-11-16T12:02:19.456Z,23.20
2022-11-16T12:07:31.781Z,20.02
2022-11-16T12:12:49.278Z,19.83
2022-11-16T12:17:56.987Z,21.98
2022-11-16T12:23:19.465Z,19.95
2022-11-16T12:28:33.918Z,21.25
2022-11-16T12:33:47.482Z,19.88
2022-11-16T12:38:57.853Z,20.25
2022-11-16T12:44:20.143Z,20.63
2022-11-16T12:49:36.839Z,21.25
2022-11-16T12:55:24.290Z,22.90
2022-11-16T13:00:12.699Z,21.63
2022-11-16T13:05:18.205Z,20.90
2022-11-16T13:10:19.996Z,20.75
2022-11-16T13:15:20.867Z,20.75
2022-11-16T13:20:35.939Z,21.70
2022-11-16T13:25:43.646Z,19.50
2022-11-16T13:30:54.043Z,21.80
2022-11-16T13:35:52.287Z,21.00
2022-11-16T13:40:49.746Z,19.92
2022-11-16T13:45:57.200Z,22.95
2022-11-16T13:50:56.762Z,21.80
2022-11-16T13:56:01.974Z,22.48
2022-11-16T14:01:04.345Z,21.65
2022-11-16T14:06:50.852Z,23.63
2022-11-16T14:11:49.538Z,23.42
2022-11-16T14:16:50.784Z,23.00
2022-11-16T14:21:54.929Z,24.95
2022-11-16T14:27:04.114Z,22.80
2022-11-16T14:32:03.688Z,25.00
2022-11-16T14:37:00.995Z,27.80
2022-11-16T14:42:01.701Z,27.75
2022-11-16T14:46:59.391Z,34.17
2022-11-16T14:52:02.873Z,36.13
2022-11-16T14:57:05.210Z,34.03
2022-11-16T15:02:21.252Z,34.20
2022-11-16T15:07:24.825Z,33.20
2022-11-16T15:12:45.895Z,32.33
2022-11-16T15:17:46.073Z,34.03
2022-11-16T15:22:46.711Z,31.30
2022-11-16T15:27:46.159Z,31.25
2022-11-16T15:32:44.846Z,33.95
2022-11-16T15:37:42.186Z,30.17
2022-11-16T15:42:41.699Z,33.42
2022-11-16T15:47:42.390Z,38.30
2022-11-16T15:52:44.024Z,42.40
2022-11-16T15:57:46.465Z,35.65
2022-11-16T16:02:45.119Z,35.22
2022-11-16T16:07:43.968Z,37.05
2022-11-16T16:12:51.519Z,38.58
2022-11-16T16:17:50.672Z,41.30
2022-11-16T16:22:50.085Z,44.90
2022-11-16T16:27:47.335Z,44.17
2022-11-16T16:32:54.563Z,38.38
2022-11-16T16:37:58.442Z,49.42
2022-11-16T16:42:57.309Z,47.95
2022-11-16T16:47:55.278Z,49.10
2022-11-16T16:52:52.603Z,59.42
2022-11-16T16:57:50.472Z,68.13
2022-11-16T17:02:49.531Z,66.20
2022-11-16T17:07:51.113Z,69.68
2022-11-16T17:12:49.403Z,68.47
2022-11-16T17:17:46.735Z,69.90
2022-11-16T17:22:44.117Z,57.85
2022-11-16T17:27:44.999Z,64.75
2022-11-16T17:32:42.839Z,72.95
2022-11-16T17:37:47.885Z,82.70
2022-11-16T17:42:49.077Z,91.00
2022-11-16T17:47:46.457Z,78.00
2022-11-16T17:52:46.216Z,78.63
2022-11-16T17:57:51.004Z,90.03
2022-11-16T18:02:48.167Z,86.75
2022-11-16T18:07:49.555Z,89.13
2022-11-16T18:17:52.386Z,92.63
2022-11-16T18:22:53.048Z,81.88
2022-11-16T18:27:54.782Z,87.50
2022-11-16T18:32:51.835Z,76.60
2022-11-16T18:37:49.153Z,82.22
2022-11-16T18:42:46.357Z,84.03
2022-11-16T18:47:44.216Z,88.10
2022-11-16T18:52:44.951Z,75.93
2022-11-16T18:57:42.355Z,68.63
2022-11-16T19:02:39.833Z,68.25
2022-11-16T19:07:37.761Z,67.32
2022-11-16T19:12:37.090Z,63.20
2022-11-16T19:17:53.187Z,66.32
2022-11-16T19:22:54.060Z,60.17
2022-11-16T19:27:51.258Z,51.33
2022-11-16T19:32:48.294Z,54.47
2022-11-16T19:37:45.554Z,57.53
2022-11-16T19:42:43.681Z,57.60
2022-11-16T19:47:40.947Z,53.30
2022-11-16T19:52:38.377Z,50.28
2022-11-16T19:57:35.514Z,48.78
2022-11-16T20:02:33.412Z,47.03
2022-11-16T20:07:30.425Z,48.30
2022-11-16T20:12:27.364Z,43.25
2022-11-16T20:17:24.333Z,46.72
2022-11-16T20:22:22.287Z,48.65
2022-11-16T20:27:19.257Z,57.50
2022-11-16T20:32:16.328Z,51.08
2022-11-16T20:37:13.452Z,52.05
2022-11-16T20:42:11.642Z,48.60
2022-11-16T20:47:08.909Z,47.03
2022-11-16T20:52:05.973Z,48.83
2022-11-16T20:57:02.937Z,48.95
2022-11-16T21:02:01.326Z,52.15
2022-11-16T21:06:58.296Z,50.92
2022-11-16T21:12:13.479Z,45.20
2022-11-16T21:17:11.249Z,44.23
2022-11-16T21:22:08.198Z,39.95
2022-11-16T21:27:05.055Z,44.67
2022-11-16T21:32:02.268Z,43.83
2022-11-16T21:36:59.820Z,39.25
2022-11-16T21:41:58.229Z,45.90
2022-11-16T21:46:55.092Z,44.65
2022-11-16T21:51:52.755Z,42.53
2022-11-16T21:56:50.877Z,39.15
2022-11-16T22:02:02.086Z,38.42
2022-11-16T22:07:17.531Z,38.55
2022-11-16T22:12:15.547Z,40.95
2022-11-16T22:17:12.618Z,40.95
2022-11-16T22:22:09.678Z,40.47
2022-11-16T22:27:06.628Z,43.38
2022-11-16T22:32:04.971Z,40.80
2022-11-16T22:37:02.041Z,40.08
2022-11-16T22:41:58.963Z,41.63
2022-11-16T22:46:55.866Z,42.97
2022-11-16T22:51:53.687Z,42.17
2022-11-16T22:56:50.783Z,41.97
2022-11-16T23:01:47.817Z,41.47
2022-11-16T23:06:44.904Z,41.63
2022-11-16T23:12:03.652Z,40.03
2022-11-16T23:17:01.479Z,41.35
2022-11-16T23:22:16.632Z,42.10
2022-11-16T23:27:30.174Z,37.13
2022-11-16T23:32:27.538Z,34.45
2022-11-16T23:37:24.622Z,37.55
2022-11-16T23:42:40.263Z,38.42
2022-11-16T23:47:37.178Z,39.08
2022-11-16T23:52:34.337Z,40.45
2022-11-16T23:57:32.710Z,36.47
